Mountlake Terrace, WA (98043)

3:28 AM PDT on October 25, 2014 (GMT -0700)
Southwest Brier. Near King, Sno. Co. line | Change Station
CLOSE
Current Station
Personal Weather Station
Location: Brier, WA
Elevation: 320 ft
Nearby Weather Stations

Elev 320 ft 47.78 °N, 122.28 °W | Updated 10 minutes ago

Overcast
Overcast
48.5 °F
Feels Like 48 °F
N
0.0
Wind Variable Wind from NW
Gusts 1.0 mph

Today
High -- | Low -- °F
--% Chance of Precip.
Yesterday
High -- | Low -- °F
Precip. -- in
7:43 AM 6:02 PM
New Moon, 2% visible
Pressure 29.64 in
Visibility 10.0 miles
Clouds Few 200 ft
Scattered Clouds 8000 ft
Mostly Cloudy 10000 ft
Windchill 48 °F
Dew Point 47 °F
Humidity 95%
Rainfall -999.00 in
Snow Depth Not available.
UV 0 out of 12
Pollen .40 out of 12
Air Quality Not available.
Flu Activity Sporadic
METAR KPAE 250953Z AUTO 02003KT 10SM FEW002 SCT080 BKN100 09/09 A2964 RMK AO2 RAE00 PRESFR SLP037 P0000 T00940089

More Conditions Fewer Conditions

Pressure 29.64 in
Visibility 10.0 miles
Clouds Few 200 ft
Scattered Clouds 8000 ft
Mostly Cloudy 10000 ft
Windchill 48 °F
Dew Point 47 °F
Humidity 95%
Rainfall -999.00 in
Snow Depth Not available.
UV 0 out of 12
Pollen .40 out of 12
Air Quality Not available.
Flu Activity Sporadic
METAR KPAE 250953Z AUTO 02003KT 10SM FEW002 SCT080 BKN100 09/09 A2964 RMK AO2 RAE00 PRESFR SLP037 P0000 T00940089

More Conditions Fewer Conditions

10-Day Weather Forecast

Almanac

Astronomy

Oct. 25, 2014 Rise Set
Actual Time 7:43 AM PDT 6:02 PM PDT
Civil Twilight 7:11 AM PDT 6:34 PM PDT
Nautical Twilight 6:35 AM PDT 7:10 PM PDT
Astronomical Twilight 5:59 AM PDT 7:46 PM PDT
Moon 9:33 AM PDT 7:23 PM PDT
Length of Visible Light 11h 22m
Length of Day
10h 19m
Tomorrow will be 3m 13s shorter.
New Moon, 2% of the Moon is Illuminated
Today
New Moon
Oct 30
First Quarter
Nov 6
Full
Nov 14
Last Quarter
Nov 22
New

Today's Extremes

State Highs State Lows

Community

WunderPhotos

Upload Photos

1,764,806 photos uploaded!

Nearby

Air Quality

  Air Quality AQ Index Pollutant
Saturday Good
PM2.5
Sunday Good
PM2.5
Monday Good
PM2.5
Tuesday Good
PM2.5
Wednesday Good
PM2.5

Snow Depth

Station Depth Elevation
Alpine Meadows 0 in 3500 ft
Skookum Creek 0 in 3920 ft
Dungeness 0 in 4100 ft
Mount Gardner 0 in 3000 ft
Olallie Meadows 0 in 3700 ft

Earthquake Activity

City Distance Mag. Time & Date
Birch Bay, Washington 75 miles 2.8 3:02 AM PDT
2014-10-24
Minimum magnitude displayed is 2.5.

Coastal Water Temperatures

Place Temperature
Port Townsend, WA 52.0 °F
Seattle, WA 55.0 °F
Friday Harbor, WA 51.1 °F
Tacoma, WA 54.0 °F

Nearby Weather Stations